This is the latest recevied weather packets stored in our database for station/object LRTR. If no packets are shown the sender has not sent any weather packets the latest 10 day(s).
| Time | Temp. | Humidity | Pressure | Rain* | Wind** | Luminosity | Snow |
|---|---|---|---|---|---|---|---|
| 1777903386 | 23.89° C | 24% | 1017 hPa | - | - | - | - |
| 1777902485 | 23.89° C | 24% | 1017 hPa | - | - | - | - |
| 1777901586 | 23.89° C | 24% | 1017 hPa | - | - | - | - |
| 1777900685 | 25° C | 24% | 1017 hPa | - | - | - | - |
| 1777899785 | 25° C | 24% | 1017 hPa | - | - | - | - |
| 1777898886 | 23.89° C | 25% | 1018 hPa | - | - | - | - |
| 1777897985 | 23.89° C | 25% | 1018 hPa | - | - | - | - |
| 1777897085 | 23.89° C | 27% | 1018 hPa | - | - | - | - |
| 1777896184 | 23.89° C | 27% | 1018 hPa | - | - | - | - |
| 1777894385 | 23.89° C | 25% | 1018 hPa | - | - | - | - |
| 1777893519 | 22.78° C | 29% | 1019 hPa | - | - | - | - |
| 1777892585 | 22.78° C | 29% | 1019 hPa | - | - | - | - |
| 1777891685 | 22.78° C | 29% | 1019 hPa | - | - | - | - |
| 1777889893 | 21.11° C | 33% | 1019 hPa | - | - | - | - |
| 1777887185 | 21.11° C | 33% | 1020 hPa | - | - | - | - |
| 1777886285 | 18.89° C | 37% | 1020 hPa | - | - | - | - |
| 1777885385 | 18.89° C | 37% | 1020 hPa | - | - | - | - |
| 1777883585 | 17.78° C | 40% | 1020 hPa | - | - | - | - |
| 1777882685 | 17.22° C | 42% | 1020 hPa | - | - | - | - |
| 1777881785 | 17.22° C | 42% | 1020 hPa | - | - | - | - |
| 1777879985 | 16.11° C | 48% | 1020 hPa | - | - | - | - |
| 1777879085 | 13.89° C | 51% | 1020 hPa | - | - | - | - |
| 1777878186 | 13.89° C | 51% | 1020 hPa | - | - | - | - |
| 1777877284 | 12.78° C | 55% | 1020 hPa | - | - | - | - |
| 1777876386 | 12.78° C | 55% | 1020 hPa | - | - | - | - |
* Rain since midnight (hover to see other rain measurements)
** Current wind speed in m/s (hover to see current wind gust speed)